NCAR-RAP Real-Time Weather Data

Output produced by METARs form (23 July 2019  22:36 UTC)
found at http://weather.rap.ucar.edu/surface/
 
KAUS 232153Z 03013KT 10SM FEW050 SCT250 33/15 A3001 RMK AO2 SLP148 T03280150